Flight Track Log - Related Links

Times and Time Zones

All times are in EDT time to prevent confusion due to time zone crossing. See the OPT332 flight status page for this flight to view local times or setup timezone preferences in your user account.

Time Position Orientation Groundspeed Altitude Reporting Facility
EDT Latitude Longitude Course Direction KTS MPH feet Rate Location/Type
Sun 09:13:44 PM 37.6508 -122.3310 54° Northeast 205 236 3,300  Level FlightAware ADS-B
Sun 09:13:59 PM 37.6594 -122.3160 54° Northeast 216 249 4,100 2,903 Climbing FlightAware ADS-B
Sun 09:14:15 PM 37.6695 -122.3000 51° Northeast 236 272 4,800 2,571 Climbing FlightAware ADS-B
Sun 09:14:27 PM 37.6778 -122.2860 53° Northeast 251 289 5,300 2,786 Climbing FlightAware ADS-B
Sun 09:14:43 PM 37.6906 -122.2670 50° Northeast 260 299 6,100 3,068 Climbing FlightAware ADS-B
Sun 09:15:55 PM 37.7507 -122.1830 48° Northeast 284 327 9,800 3,200 Climbing FlightAware ADS-B
Sun 09:16:13 PM 37.7679 -122.1600 47° Northeast 285 328 10,900 3,250 Climbing FlightAware ADS-B
Sun 09:16:19 PM 37.7726 -122.1520 53° Northeast 288 331 11,100 2,182 Climbing FlightAware ADS-B
Sun 09:16:24 PM 37.7756 -122.1440 65° Northeast 289 333 11,300 2,500 Climbing FlightAware ADS-B
Sun 09:16:31 PM 37.7785 -122.1320 73° East 289 333 11,600 2,609 Climbing FlightAware ADS-B
Sun 09:16:47 PM 37.7843 -122.1070 74° East 296 341 12,300 2,645 Climbing FlightAware ADS-B
Sun 09:18:04 PM 37.8193 -121.9760 71° East 314 361 15,700 2,545 Climbing FlightAware ADS-B
Sun 09:18:26 PM 37.8295 -121.9370 72° East 321 369 16,500 2,533 Climbing FlightAware ADS-B
Sun 09:18:49 PM 37.8366 -121.8940 78° East 323 372 17,600 1,714 Climbing FlightAware ADS-B
Sun 09:20:39 PM 37.8594 -121.7600 78° East 331 381 20,300 2,170 Climbing FlightAware ADS-B
Sun 09:21:10 PM 37.8824 -121.6230 78° East 356 410 22,700 2,523 Climbing FlightAware ADS-B
Sun 09:22:26 PM 37.9080 -121.4680 78° East 369 425 24,800 1,738 Climbing FlightAware ADS-B
Sun 09:22:57 PM 37.9197 -121.3980 78° East 374 430 25,800 2,032 Climbing FlightAware ADS-B
Sun 09:23:28 PM 37.9305 -121.3330 78° East 375 432 26,900 1,604 Climbing FlightAware ADS-B
Sun 09:24:38 PM 37.9492 -121.2190 78° East 380 437 28,500 1,707 Climbing FlightAware ADS-B
Sun 09:25:24 PM 37.9683 -121.0908 78° East 384 442 30,200 2,056 Climbing Oakland Center
Sun 09:26:26 PM 37.9903 -120.9572 78° East 389 448 32,200 1,854 Climbing Oakland Center
Sun 09:27:27 PM 38.0119 -120.8233 78° East 391 450 34,000 1,707 Climbing Oakland Center
Sun 09:28:29 PM 38.0333 -120.6906 78° East 389 448 35,700 1,610 Climbing Oakland Center
Sun 09:29:30 PM 38.0536 -120.5575 79° East 387 445 37,300 1,512 Climbing Oakland Center
Sun 09:30:32 PM 38.0733 -120.4281 79° East 378 435 38,800 1,610 Climbing Oakland Center
Sun 09:31:33 PM 38.0978 -120.2744 79° East 372 428 40,600 1,366 Climbing Oakland Center
Sun 09:32:35 PM 38.1164 -120.1483 79° East 366 421 41,600 927 Climbing Oakland Center
Sun 09:33:36 PM 38.1389 -120.0214 77° East 369 425 42,500 780 Climbing Oakland Center
Sun 09:34:38 PM 38.1575 -119.8950 79° East 367 422 43,200 585 Climbing Oakland Center
Sun 09:35:39 PM 38.1761 -119.7664 80° East 370 426 43,700 537 Climbing Oakland Center
Sun 09:36:41 PM 38.1958 -119.6344 79° East 379 436 44,300 634 Climbing Oakland Center
Sun 09:37:42 PM 38.2158 -119.5042 79° East 377 434 45,000 341 Climbing Oakland Center
Sun 09:38:44 PM 38.2386 -119.3506 79° East 386 444 45,000  Level Oakland Center
Sun 09:39:45 PM 38.2589 -119.2131 79° East 395 455 45,000  Level Oakland Center
Sun 09:40:46 PM 38.2778 -119.0739 80° East 401 461 45,000  Level Oakland Center
Sun 09:41:48 PM 38.2986 -118.9306 79° East 411 473 45,000  Level Oakland Center
Sun 09:42:49 PM 38.3192 -118.7861 80° East 414 476 45,000  Level Oakland Center
Sun 09:43:51 PM 38.3392 -118.6364 80° East 425 489 45,000  Level Oakland Center
Sun 09:44:52 PM 38.3644 -118.4628 79° East 422 486 45,000  Level Oakland Center
Sun 09:45:54 PM 38.3853 -118.3153 80° East 425 489 45,000  Level Oakland Center
Sun 09:46:55 PM 38.4056 -118.1636 80° East 432 497 45,000  Level Oakland Center
Sun 09:47:56 PM 38.4272 -118.0089 80° East 436 502 45,000  Level Oakland Center
Sun 09:48:58 PM 38.4469 -117.8558 81° East 436 502 45,000  Level Oakland Center
Sun 09:49:59 PM 38.4675 -117.7031 80° East 436 502 45,000  Level Oakland Center
Sun 09:51:02 PM 38.4875 -117.5497 80° East 436 502 45,000  Level Salt Lake Center
Sun 09:52:04 PM 38.5069 -117.3961 81° East 435 501 45,000  Level Salt Lake Center
Sun 09:53:03 PM 38.5211 -117.2419 83° East 435 501 45,000  Level Oakland Center
Sun 09:54:04 PM 38.5172 -117.0869 92° East 433 498 45,000  Level Oakland Center
Sun 09:55:06 PM 38.5136 -116.9328 92° East 432 497 45,000  Level Oakland Center
Sun 09:56:09 PM 38.5083 -116.7467 92° East 434 499 45,000  Level Salt Lake Center
Sun 09:57:11 PM 38.5047 -116.5928 92° East 433 498 45,000  Level Salt Lake Center
Sun 09:58:12 PM 38.5008 -116.4378 92° East 435 501 45,000  Level Salt Lake Center
Sun 09:59:14 PM 38.4972 -116.2828 92° East 437 503 45,000  Level Salt Lake Center
Sun 10:00:15 PM 38.4917 -116.1278 93° East 437 503 45,000  Level Salt Lake Center
Sun 10:01:17 PM 38.4878 -115.9725 92° East 437 503 45,000  Level Salt Lake Center
Sun 10:02:18 PM 38.4833 -115.8194 92° East 432 497 45,000  Level Salt Lake Center
Sun 10:03:20 PM 38.4781 -115.6644 92° East 437 503 45,000  Level Salt Lake Center
Sun 10:04:21 PM 38.4728 -115.5092 92° East 438 504 45,000  Level Salt Lake Center
Sun 10:05:22 PM 38.4661 -115.3264 93° East 436 502 45,000  Level Salt Lake Center
Sun 10:06:24 PM 38.4614 -115.1878 92° East 439 505 45,000  Level Salt Lake Center
Sun 10:07:25 PM 38.4558 -115.0325 93° East 439 505 45,000  Level Salt Lake Center
Sun 10:08:27 PM 38.4489 -114.8778 93° East 438 504 45,000  Level Salt Lake Center
Sun 10:09:28 PM 38.4417 -114.6906 93° East 440 506 45,000  Level Salt Lake Center
Sun 10:10:30 PM 38.4350 -114.5353 93° East 439 505 45,000  Level Salt Lake Center
Sun 10:11:31 PM 38.4286 -114.3786 93° East 442 509 45,000  Level Salt Lake Center
Sun 10:12:32 PM 38.4228 -114.2228 93° East 442 509 45,000  Level Salt Lake Center
Sun 10:13:34 PM 38.4147 -114.0661 94° East 442 509 45,000  Level Salt Lake Center
Sun 10:14:35 PM 38.4081 -113.9083 93° East 446 513 45,000  Level Salt Lake Center
Sun 10:20:06 PM 38.3611 -113.0260 93° East 443 510 45,000  Level FlightAware ADS-B
Sun 10:20:22 PM 38.3610 -112.9850 90° East 443 510 45,000  Level FlightAware ADS-B
Sun 10:21:47 PM 38.3675 -112.8020 87° East 443 510 45,000  Level FlightAware ADS-B
Sun 10:22:27 PM 38.3718 -112.6630 88° East 442 509 45,000  Level FlightAware ADS-B
Sun 10:24:26 PM 38.3790 -112.4280 88° East 441 507 45,000  Level FlightAware ADS-B
Sun 10:24:50 PM 38.3817 -112.3300 88° East 442 509 45,000  Level FlightAware ADS-B
Sun 10:26:15 PM 38.3889 -112.0690 88° East 441 507 45,000  Level FlightAware ADS-B
Sun 10:26:45 PM 38.3909 -111.9890 88° East 440 506 45,000  Level FlightAware ADS-B
Sun 10:27:16 PM 38.3929 -111.9120 88° East 440 506 45,000  Level FlightAware ADS-B
Sun 10:28:36 PM 38.3967 -111.7540 88° East 441 507 45,000  Level FlightAware ADS-B
Sun 10:29:16 PM 38.3997 -111.6270 88° East 441 507 45,000  Level FlightAware ADS-B
Sun 10:30:53 PM 38.4056 -111.3500 88° East 442 509 45,000  Level FlightAware ADS-B
Sun 10:31:24 PM 38.4071 -111.2710 89° East 442 509 45,000  Level FlightAware ADS-B
Sun 10:33:13 PM 38.4123 -110.9830 89° East 444 511 45,000  Level FlightAware ADS-B
Sun 10:33:47 PM 38.4138 -110.8950 89° East 444 511 45,000  Level FlightAware ADS-B
Sun 10:34:52 PM 38.4161 -110.7333 89° East 443 510 45,000  Level Denver Center
Sun 10:35:54 PM 38.4192 -110.5836 88° East 442 509 45,000  Level Denver Center
Sun 10:36:55 PM 38.4233 -110.4083 88° East 444 511 45,000  Level Denver Center
Sun 10:37:57 PM 38.4261 -110.2578 89° East 445 512 45,000  Level Denver Center
Sun 10:39:11 PM 38.4308 -110.0592 88° East 442 509 45,000  Level Denver Center
Sun 10:40:25 PM 38.4339 -109.9097 88° East 443 510 45,000  Level Denver Center
Sun 10:41:27 PM 38.4372 -109.7083 89° East 445 512 45,000  Level Denver Center
Sun 10:42:28 PM 38.4394 -109.5583 89° East 445 512 45,000  Level Denver Center
Sun 10:43:30 PM 38.4419 -109.3867 89° East 437 503 45,000  Level Denver Center
Sun 10:44:31 PM 38.4442 -109.2342 89° East 444 511 45,000  Level Denver Center
Sun 10:45:33 PM 38.4464 -109.0592 89° East 444 511 45,000  Level Denver Center
Sun 10:46:35 PM 38.4483 -108.9092 89° East 444 511 45,000  Level Denver Center
Sun 10:47:36 PM 38.4500 -108.7333 89° East 443 510 45,000  Level Denver Center
Sun 10:48:38 PM 38.4511 -108.5817 89° East 447 514 45,000  Level Denver Center
Sun 10:49:39 PM 38.4514 -108.4081 90° East 442 509 45,000  Level Denver Center
Sun 10:50:41 PM 38.4522 -108.2569 90° East 445 512 45,000  Level Denver Center
Sun 10:51:43 PM 38.4528 -108.1064 90° East 445 512 45,000  Level Denver Center
Sun 10:52:44 PM 38.4531 -107.9303 90° East 446 513 45,000  Level Denver Center
Sun 10:53:46 PM 38.4542 -107.7781 89° East 449 517 45,000  Level Denver Center
Sun 10:54:47 PM 38.4525 -107.6022 91° East 447 514 45,000  Level Denver Center
Sun 10:55:49 PM 38.4533 -107.4492 90° East 449 517 45,000  Level Denver Center
Sun 10:56:51 PM 38.4531 -107.2717 90° East 449 517 45,000  Level Denver Center
Sun 10:57:52 PM 38.4517 -107.1381 91° East 451 519 45,000  Level Denver Center
Sun 10:58:54 PM 38.4489 -106.9486 91° East 447 514 45,000  Level Denver Center
Sun 10:59:55 PM 38.4383 -106.7900 95° East 450 518 45,000  Level Denver Center
Sun 11:00:57 PM 38.4303 -106.6311 94° East 450 518 45,000  Level Denver Center
Sun 11:01:58 PM 38.4219 -106.4717 94° East 451 519 45,000  Level Denver Center
Sun 11:03:00 PM 38.4125 -106.3114 94° East 452 520 45,000  Level Denver Center
Sun 11:04:02 PM 38.4033 -106.1342 94° East 454 522 45,000  Level Denver Center
Sun 11:05:03 PM 38.3944 -105.9803 94° East 454 522 45,000  Level Denver Center
Sun 11:06:05 PM 38.3847 -105.8228 94° East 454 522 45,000  Level Denver Center
Sun 11:07:06 PM 38.3756 -105.6639 94° East 453 521 45,000  Level Denver Center
Sun 11:08:08 PM 38.3636 -105.4719 94° East 455 524 45,000  Level Denver Center
Sun 11:09:09 PM 38.3539 -105.3122 94° East 456 525 45,000  Level Denver Center
Sun 11:10:10 PM 38.3458 -105.1850 95° East 454 522 45,000  Level Denver Center
Sun 11:11:12 PM 38.3328 -104.9828 95° East 456 525 45,000  Level Denver Center
Sun 11:12:14 PM 38.3228 -104.8289 95° East 455 524 45,000  Level Denver Center
Sun 11:13:15 PM 38.3119 -104.6753 95° East 455 524 45,000  Level Denver Center
Sun 11:14:17 PM 38.2989 -104.4972 95° East 453 521 45,000  Level Denver Center
Sun 11:15:18 PM 38.2875 -104.3444 95° East 452 520 45,000  Level Denver Center
Sun 11:16:19 PM 38.2717 -104.1647 96° East 455 524 45,000  Level Denver Center
Sun 11:17:21 PM 38.2583 -104.0111 96° East 454 522 45,000  Level Denver Center
Sun 11:18:22 PM 38.2450 -103.8583 96° East 453 521 45,000  Level Denver Center
Sun 11:19:24 PM 38.2289 -103.6817 97° East 449 517 45,000  Level Denver Center
Sun 11:20:25 PM 38.2142 -103.5325 97° East 446 513 45,000  Level Denver Center
Sun 11:21:26 PM 38.2008 -103.3833 96° East 444 511 45,000  Level Denver Center
Sun 11:22:28 PM 38.1842 -103.2100 97° East 441 507 45,000  Level Denver Center
Sun 11:23:29 PM 38.1689 -103.0531 97° East 439 505 45,000  Level Denver Center
Sun 11:24:30 PM 38.1542 -102.9072 97° East 438 504 45,000  Level Denver Center
Sun 11:25:31 PM 38.1375 -102.7367 97° East 437 503 45,000  Level Denver Center
Sun 11:26:33 PM 38.1233 -102.5900 97° East 438 504 45,000  Level Denver Center
Sun 11:27:34 PM 38.1083 -102.4431 97° East 439 505 45,000  Level Denver Center
Sun 11:28:35 PM 38.0889 -102.2719 98° East 439 505 45,000  Level Denver Center
Sun 11:29:37 PM 38.0744 -102.1250 97° East 439 505 45,000  Level Denver Center
Sun 11:30:50 PM 38.0539 -101.9294 98° East 439 505 45,000  Level Denver Center
Sun 11:31:52 PM 38.0381 -101.7819 98° East 440 506 45,000  Level Denver Center
Sun 11:32:53 PM 38.0197 -101.6097 98° East 442 509 45,000  Level Denver Center
Sun 11:33:54 PM 38.0033 -101.4617 98° East 444 511 45,000  Level Denver Center
Sun 11:34:55 PM 37.9861 -101.3125 98° East 447 514 45,000  Level Denver Center
Sun 11:35:57 PM 37.9669 -101.1378 98° East 447 514 45,000  Level Denver Center
Sun 11:36:58 PM 37.9497 -100.9853 98° East 452 520 45,000  Level Denver Center
Sun 11:37:59 PM 37.9319 -100.8325 98° East 453 521 45,000  Level Denver Center
Sun 11:39:08 PM 37.9164 -100.6519 96° East 456 525 45,000  Level Kansas City Center
Sun 11:40:07 PM 37.9089 -100.4722 93° East 457 526 45,000  Level Kansas City Center
Sun 11:41:11 PM 37.9017 -100.3192 93° East 454 522 45,000  Level Kansas City Center
Sun 11:42:12 PM 37.8944 -100.1650 93° East 456 525 45,000  Level Kansas City Center
Sun 11:43:09 PM 37.8861 -99.9869 93° East 454 522 45,000  Level Kansas City Center
Sun 11:44:10 PM 37.8786 -99.8347 94° East 453 521 45,000 -48 Level Kansas City Center
Sun 11:45:13 PM 37.8708 -99.6844 94° East 450 518 44,900 -1,785 Descending Kansas City Center
Sun 11:46:11 PM 37.8625 -99.5058 93° East 454 522 41,400 -3,126 Descending Kansas City Center
Sun 11:47:12 PM 37.8536 -99.3542 94° East 467 537 38,700 -2,926 Descending Kansas City Center
Sun 11:48:12 PM 37.8447 -99.1931 94° East 463 533 35,500 -3,120 Descending Kansas City Center
Sun 11:49:17 PM 37.8358 -99.0367 94° East 450 518 32,200 -2,852 Descending Kansas City Center
Sun 11:50:14 PM 37.8281 -98.8856 94° East 437 503 29,700 -2,615 Descending Kansas City Center
Sun 11:51:14 PM 37.8183 -98.7339 95° East 433 498 27,100 -2,727 Descending Kansas City Center
Sun 11:51:53 PM 37.8117 -98.6214 94° East 451 519 25,200 -2,710 Descending Kansas City Center
Sun 11:52:16 PM 37.8089 -98.5703 94° East 458 527 24,300 -2,914 Descending Kansas City Center
Sun 11:52:28 PM 37.8053 -98.5219 95° East 467 537 23,500 -2,419 Descending Kansas City Center
Sun 11:53:18 PM 37.8000 -98.4203 94° East 433 498 21,800 -2,323 Descending Kansas City Center
Sun 11:53:30 PM 37.7967 -98.3775 96° East 393 452 21,100 -2,276 Descending Kansas City Center
Sun 11:54:16 PM 37.7917 -98.2889 94° East 378 435 19,600 -2,164 Descending Kansas City Center
Sun 11:54:31 PM 37.7892 -98.2489 95° East 351 404 18,900 -2,000 Descending Kansas City Center
Sun 11:55:19 PM 37.7839 -98.1658 95° East 361 415 17,500 -2,200 Descending Kansas City Center
Sun 11:55:31 PM 37.7800 -98.1261 97° East 348 400 16,700 -2,500 Descending Kansas City Center
Sun 11:56:19 PM 37.7750 -98.0350 94° East 348 400 15,000 -2,600 Descending Kansas City Center
Sun 11:56:31 PM 37.7728 -98.0000 95° East 338 389 14,100 -2,361 Descending Kansas City Center
Sun 11:57:20 PM 37.7681 -97.9347 95° East 332 382 12,600 -2,557 Descending Kansas City Center
Sun 11:57:32 PM 37.7644 -97.8875 96° East 315 362 11,500 -3,103 Descending Kansas City Center
Sun 11:58:18 PM 37.7600 -97.8078 94° East 310 357 9,600 -2,262 Descending Kansas City Center
Sun 11:58:33 PM 37.7586 -97.7825 94° East 301 346 9,200 -1,770 Descending Kansas City Center
Sun 11:59:19 PM 37.7528 -97.7033 95° East 304 350 7,800 -1,800 Descending Kansas City Center
Sun 11:59:33 PM 37.7506 -97.6753 96° East 303 349 7,400 -1,600 Descending Kansas City Center
Mon 12:00:19 AM 37.7461 -97.5986 94° East 303 349 6,200 -1,574 Descending Kansas City Center
Mon 12:00:34 AM 37.7447 -97.5706 94° East 303 349 5,800 -1,524 Descending Kansas City Center
Mon 12:01:22 AM 37.7456 -97.4956 89° East 298 343 4,600 -1,600 Descending Kansas City Center
Mon 12:01:34 AM 37.7453 -97.4672 91° East 290 334 4,200 -1,000 Descending Kansas City Center
Mon 12:02:22 AM 37.7478 -97.4053 87° East 275 316 3,600 -1,000 Descending Kansas City Center
Mon 12:02:34 AM 37.7475 -97.3822 91° East 211 243 3,200 -590 Descending Kansas City Center
Mon 12:03:23 AM 37.7633 -97.3517 57° Northeast 228 262 3,000 -194 Descending Kansas City Center
Mon 12:03:36 AM 37.7778 -97.3483 10° North 169 194 3,000 -103 Level Kansas City Center
Mon 12:04:21 AM 37.8128 -97.3408 10° North 198 228 2,900  Descending Kansas City Center
Mon 12:04:37 AM 37.8272 -97.3381 North 179 206 3,000 100 Climbing Kansas City Center
Mon 12:05:21 AM 37.8586 -97.3328 North 182 209 3,000  Level Kansas City Center
Mon 12:05:37 AM 37.8706 -97.3311 North 151 174 3,000  Level Kansas City Center
Mon 12:06:24 AM 37.8994 -97.3264 North 165 190 3,000  Level Kansas City Center
Mon 12:06:39 AM 37.9119 -97.3247 North 145 167 3,000  Level Kansas City Center
Mon 12:07:25 AM 37.9264 -97.3042 48° Northeast 149 171 3,000  Level Kansas City Center
Mon 12:07:37 AM 37.9247 -97.2828 96° East 139 160 3,000  Level Kansas City Center
Mon 12:08:25 AM 37.9222 -97.2544 96° East 146 168 3,000  Level Kansas City Center
Mon 12:08:40 AM 37.9222 -97.2356 90° East 137 158 3,000  Level Kansas City Center
Mon 12:09:24 AM 37.9092 -97.2147 128° Southeast 147 169 3,000  Level Kansas City Center
Mon 12:09:40 AM 37.8947 -97.2133 176° South 138 159 3,000  Level Kansas City Center
Mon 12:10:24 AM 37.8717 -97.2075 169° South 141 162 3,000  Level Kansas City Center
Mon 12:10:42 AM 37.8583 -97.2058 174° South 130 150 3,000 -100 Level Kansas City Center
Mon 12:11:24 AM 37.8361 -97.2061 181° South 135 155 2,900 -300 Descending Kansas City Center
Mon 12:11:42 AM 37.8208 -97.2092 189° South 144 166 2,700 -689 Descending Kansas City Center
Mon 12:12:25 AM 37.8000 -97.2142 191° South 132 152 2,200 -700 Descending Kansas City Center
Mon 12:12:42 AM 37.7856 -97.2147 182° South 134 154 2,000 -667 Descending Kansas City Center
Mon 12:13:28 AM 37.7631 -97.2192 189° South 132 152 1,500 -652 Descending Kansas City Center

Login

Don't have an account? Register now (free) for customized features, flight alerts, and more!